Terminal Aerodrome Forecast
Issued by NWS Charleston, WV

Current Version | Previous Version | Text Only | Print | Product List | Glossary Off
Versions: 1 2 3 4 5 6 7 8 9 10 11 12 13 14 15 16 17 18 19 20 21 22 23 24

000
FTUS41 KRLX 221131
TAFHTS
TAF
KHTS 221131Z 2212/2312 25006KT 5SM BR FEW002
     FM221300 25006KT P6SM FEW200
     FM221800 25008KT P6SM BKN050
     FM230000 25005KT P6SM SCT045
     FM230900 00000KT 6SM BR SCT150=

USA.gov is the U.S. government's official web portal to all federal, state and local government web resources and services.